GCLA

Details ICAO GCLA (SPC)
Name La Palma
Region Canary Islands
Timezone Atlantic/Canary (UTC+1.0)
Plans Departing 259
Arriving 350
Stats Elevation 107 ft / 33 m (AMSL)
Location 28.626480° -17.755613°
Runways 1
Magnetic Variation 5.469° W
Sunrise 2018-05-27 06:16:19 UTC / 2018-05-27 07:16:19 Local
Sunset 2018-05-27 20:02:56 UTC / 2018-05-27 21:02:56 Local
Advertisement - Login to hide

Runways

ID Width Length Bearing (true) Bearing (mag) Surface Threshold Offset Overrun Length
01 148 ft / 45 m 7,240 ft / 2,207 m 359.02° 4.49° Asphalt 0 ft / 0 m 279 ft / 85 m
19 148 ft / 45 m 7,240 ft / 2,207 m 179.02° 184.49° Asphalt 0 ft / 0 m 236 ft / 72 m

Map

Weather


0- 5 10 15 20 25 30 35+ Temperature / ° C

Clouds and Precipitation
Forecast for 2018-05-27 18:00 UTC. Updated 26 minutes ago

Ground ~20,000 ft ~40,000 ft Winds

METAR

GCLA 271730Z 03012KT 010V100 9999 BKN040 19/14 Q1022

TAF

TAF GCLA 271400Z 2715/2815 04020KT 9999 BKN040 TX21/2814Z TN17/2805Z BECMG 2718/2719 35005KT BECMG 2810/2812 04020KT

Frequencies

Tower 118.90 MHz GCLA TWR
Approach 126.10 MHz GCLA APP
Warning: Do not use this data for real-world aviation or navigation. No guarantee of current accuracy is given.